Time;durP1;ratioP1;P1;durP2;ratioP2;P2;SDS_P1;SDS_P2;PMS_P1;PMS_P2;Temp;Humidity;BMP_temperature;BMP_pressure;BME280_temperature;BME280_humidity;BME280_pressure;Samples;Min_cycle;Max_cycle;Signal;HPM_P1;HPM_P2
2022/06/13 00:01:46;;;;;;;0.25;0.25;;;14.80;99.90;;;;;;4900099;29;20048;-68
2022/06/13 00:04:12;;;;;;;0.40;0.40;;;14.80;99.90;;;;;;4896256;29;20084;-68
2022/06/13 00:06:37;;;;;;;0.52;0.45;;;14.70;99.90;;;;;;4898223;29;20048;-68
2022/06/13 00:09:06;;;;;;;1.15;1.05;;;14.70;99.90;;;;;;4908162;29;20044;-68
2022/06/13 00:11:33;;;;;;;0.70;0.50;;;14.80;99.90;;;;;;4911478;29;20085;-69
2022/06/13 00:13:58;;;;;;;0.10;0.10;;;14.80;99.90;;;;;;4900777;29;20044;-68
2022/06/13 00:16:25;;;;;;;0.25;0.25;;;14.80;99.90;;;;;;4913689;29;20040;-69
2022/06/13 00:18:50;;;;;;;0.10;0.10;;;14.70;99.90;;;;;;4916091;29;20408;-69
2022/06/13 00:21:28;;;;;;;0.63;0.55;;;14.80;99.90;;;;;;4903883;29;20068;-68
2022/06/13 00:23:54;;;;;;;0.47;0.47;;;14.90;99.90;;;;;;4897641;29;20951;-68
2022/06/13 00:26:22;;;;;;;0.28;0.28;;;14.90;99.90;;;;;;4895975;29;20048;-68
2022/06/13 00:28:49;;;;;;;0.15;0.15;;;14.90;99.90;;;;;;4896383;29;20080;-68
2022/06/13 00:31:14;;;;;;;0.73;0.50;;;14.90;99.90;;;;;;4896612;29;20659;-68
2022/06/13 00:33:40;;;;;;;0.15;0.15;;;14.90;99.90;;;;;;4898578;29;20531;-68
2022/06/13 00:36:06;;;;;;;1.25;0.47;;;14.90;99.90;;;;;;4897434;29;20406;-69
2022/06/13 00:38:32;;;;;;;0.08;0.08;;;14.90;99.90;;;;;;4894277;29;20049;-68
2022/06/13 00:40:58;;;;;;;0.10;0.10;;;14.90;99.90;;;;;;4912024;29;20177;-68
2022/06/13 00:43:24;;;;;;;7.03;1.58;;;14.90;99.90;;;;;;4914321;29;20054;-68
2022/06/13 00:45:49;;;;;;;0.90;0.85;;;14.70;99.90;;;;;;4915929;29;20048;-68
2022/06/13 00:48:18;;;;;;;1.00;0.35;;;14.80;99.90;;;;;;4908144;29;20040;-68
2022/06/13 00:50:49;;;;;;;0.10;0.10;;;14.70;99.90;;;;;;4897341;29;20087;-68
2022/06/13 00:53:28;;;;;;;0.43;0.43;;;14.70;99.90;;;;;;4895562;29;20129;-68
2022/06/13 00:56:12;;;;;;;0.00;0.00;;;14.70;99.90;;;;;;4906723;29;20566;-68
2022/06/13 00:58:46;;;;;;;1.55;0.52;;;14.60;99.90;;;;;;4901553;29;20527;-68
2022/06/13 01:01:12;;;;;;;0.10;0.10;;;14.60;99.90;;;;;;4897877;29;20840;-69
2022/06/13 01:03:43;;;;;;;0.13;0.13;;;14.60;99.90;;;;;;4915760;29;20048;-68
2022/06/13 01:06:09;;;;;;;3.60;0.90;;;14.50;99.90;;;;;;4910073;29;20051;-69
2022/06/13 01:08:37;;;;;;;0.10;0.10;;;14.60;99.90;;;;;;4913610;29;20052;-68
2022/06/13 01:11:18;;;;;;;0.57;0.45;;;14.50;99.90;;;;;;4910971;29;20077;-69
2022/06/13 01:13:57;;;;;;;0.52;0.52;;;14.60;99.90;;;;;;4911689;29;20366;-68
2022/06/13 01:16:36;;;;;;;0.38;0.38;;;14.70;99.90;;;;;;4913205;29;20055;-69
2022/06/13 01:19:37;;;;;;;0.80;0.80;;;14.70;99.90;;;;;;4914233;29;20055;-68
2022/06/13 01:22:40;;;;;;;0.30;0.30;;;14.70;99.90;;;;;;4897563;29;20059;-69
2022/06/13 01:25:24;;;;;;;1.00;0.55;;;14.60;99.90;;;;;;4895368;29;20401;-68
2022/06/13 01:28:14;;;;;;;0.22;0.22;;;14.70;99.90;;;;;;4912715;29;20102;-68
2022/06/13 01:31:03;;;;;;;0.80;0.80;;;14.70;99.90;;;;;;4915406;29;20088;-68
2022/06/13 01:33:51;;;;;;;0.05;0.05;;;14.70;99.90;;;;;;4915238;29;20512;-68
2022/06/13 01:36:28;;;;;;;0.03;0.03;;;14.70;99.90;;;;;;4899784;29;20108;-68
2022/06/13 01:39:05;;;;;;;0.47;0.47;;;14.80;99.90;;;;;;4899393;29;20524;-68
2022/06/13 01:41:43;;;;;;;0.10;0.10;;;14.80;99.90;;;;;;4911038;29;20400;-68
2022/06/13 01:44:38;;;;;;;0.30;0.30;;;14.80;99.90;;;;;;4914670;29;20044;-68
2022/06/13 01:47:10;;;;;;;0.70;0.28;;;14.80;99.90;;;;;;4915215;29;20044;-68
2022/06/13 01:50:08;;;;;;;0.32;0.32;;;14.90;99.90;;;;;;4906188;29;20080;-68
2022/06/13 01:52:58;;;;;;;12.40;1.95;;;14.90;99.90;;;;;;4909300;29;20052;-68
2022/06/13 01:55:43;;;;;;;0.20;0.20;;;14.90;99.90;;;;;;4912202;29;20529;-68
2022/06/13 01:58:31;;;;;;;1.27;0.57;;;14.90;99.90;;;;;;4914728;29;20843;-68
2022/06/13 02:01:12;;;;;;;0.10;0.10;;;14.90;99.90;;;;;;4913780;29;20062;-68
2022/06/13 02:03:47;;;;;;;0.00;0.00;;;14.80;99.90;;;;;;4906458;29;20123;-68
2022/06/13 02:06:15;;;;;;;0.00;0.00;;;14.80;99.90;;;;;;4894337;29;20495;-68
2022/06/13 02:08:47;;;;;;;1.27;1.20;;;14.90;99.90;;;;;;4894626;29;20445;-68
2022/06/13 02:11:28;;;;;;;0.00;0.00;;;15.00;99.90;;;;;;4904863;29;20060;-68
2022/06/13 02:14:06;;;;;;;0.93;0.55;;;15.00;99.90;;;;;;4913136;29;20409;-68
2022/06/13 02:16:57;;;;;;;0.10;0.10;;;15.00;99.90;;;;;;4912530;29;20051;-68
2022/06/13 02:19:34;;;;;;;0.30;0.30;;;15.10;99.90;;;;;;4905799;29;20041;-69
2022/06/13 02:22:08;;;;;;;0.25;0.25;;;15.10;99.90;;;;;;4895399;29;20055;-68
2022/06/13 02:24:38;;;;;;;0.45;0.45;;;15.20;99.90;;;;;;4894927;29;20052;-68
2022/06/13 02:27:07;;;;;;;0.10;0.10;;;15.10;99.90;;;;;;4895744;29;20048;-68
2022/06/13 02:29:39;;;;;;;0.10;0.10;;;15.20;99.90;;;;;;4907693;29;20703;-68
2022/06/13 02:32:18;;;;;;;0.10;0.10;;;15.20;99.90;;;;;;4913367;29;20075;-68
2022/06/13 02:35:00;;;;;;;0.75;0.70;;;15.20;99.90;;;;;;4914679;29;20107;-68
2022/06/13 02:37:39;;;;;;;0.00;0.00;;;15.10;99.90;;;;;;4910698;29;20083;-68
2022/06/13 02:40:12;;;;;;;0.40;0.40;;;15.30;99.90;;;;;;4907119;29;20056;-68
2022/06/13 02:43:03;;;;;;;0.00;0.00;;;15.30;99.90;;;;;;4895503;29;20107;-68
2022/06/13 02:45:38;;;;;;;0.50;0.50;;;15.30;99.90;;;;;;4897934;29;20511;-68
2022/06/13 02:48:23;;;;;;;0.00;0.00;;;15.40;99.90;;;;;;4914025;29;20056;-68
2022/06/13 02:51:00;;;;;;;0.70;0.20;;;15.30;99.90;;;;;;4909740;29;20044;-68
2022/06/13 02:53:58;;;;;;;0.00;0.00;;;15.30;99.90;;;;;;4913123;29;20048;-68
2022/06/13 02:57:23;;;;;;;0.00;0.00;;;15.40;99.90;;;;;;4905615;29;20064;-69
2022/06/13 02:59:51;;;;;;;0.00;0.00;;;15.30;99.90;;;;;;4894148;29;20067;-69
2022/06/13 03:02:29;;;;;;;0.30;0.30;;;15.30;99.90;;;;;;4895233;29;20385;-69
2022/06/13 03:05:02;;;;;;;0.40;0.40;;;15.30;99.90;;;;;;4894857;29;20127;-68
2022/06/13 03:07:43;;;;;;;0.10;0.10;;;15.20;99.90;;;;;;4895150;29;20061;-69
2022/06/13 03:10:18;;;;;;;0.10;0.10;;;15.10;99.90;;;;;;4893335;29;20408;-69
2022/06/13 03:13:23;;;;;;;0.10;0.10;;;15.10;99.90;;;;;;4894744;29;20049;-69
2022/06/13 03:16:02;;;;;;;0.10;0.10;;;15.10;99.90;;;;;;4884558;29;20071;-68
2022/06/13 03:18:32;;;;;;;0.10;0.10;;;15.10;99.90;;;;;;4893691;29;20064;-69
2022/06/13 03:21:06;;;;;;;0.10;0.10;;;15.10;99.90;;;;;;4895403;29;20131;-69
2022/06/13 03:23:44;;;;;;;0.10;0.10;;;15.10;99.90;;;;;;4895012;29;20055;-68
2022/06/13 03:26:19;;;;;;;0.10;0.10;;;15.10;99.90;;;;;;4894819;29;20420;-69
2022/06/13 03:29:15;;;;;;;0.00;0.00;;;15.10;99.90;;;;;;4893755;29;20059;-68
2022/06/13 03:31:47;;;;;;;0.00;0.00;;;15.10;99.90;;;;;;4912427;29;20063;-68
2022/06/13 03:34:18;;;;;;;0.20;0.20;;;15.10;99.90;;;;;;4913280;29;20496;-68
2022/06/13 03:36:59;;;;;;;0.10;0.10;;;15.10;99.90;;;;;;4912721;29;20055;-68
2022/06/13 03:39:37;;;;;;;0.40;0.40;;;15.00;99.90;;;;;;4899618;29;20048;-69
2022/06/13 03:42:16;;;;;;;0.00;0.00;;;15.00;99.90;;;;;;4892961;29;20067;-69
2022/06/13 03:45:07;;;;;;;0.00;0.00;;;15.00;99.90;;;;;;4895219;29;20128;-69
2022/06/13 03:47:42;;;;;;;0.50;0.50;;;15.10;99.90;;;;;;4909675;29;20041;-68
2022/06/13 03:50:21;;;;;;;0.65;0.65;;;15.00;99.90;;;;;;4913042;29;20170;-69
2022/06/13 03:52:53;;;;;;;0.10;0.10;;;15.00;99.90;;;;;;4917802;29;20056;-69
2022/06/13 03:55:36;;;;;;;1.25;0.80;;;15.00;99.90;;;;;;4899917;29;20055;-68
2022/06/13 03:58:12;;;;;;;;;;;15.00;99.90;;;;;;4898801;29;20048;-68
2022/06/13 04:00:44;;;;;;;0.05;0.05;;;15.00;99.90;;;;;;4897201;29;19931;-68
2022/06/13 04:03:10;;;;;;;0.10;0.10;;;14.90;99.90;;;;;;4897793;29;20080;-69
2022/06/13 04:05:42;;;;;;;0.05;0.05;;;14.90;99.90;;;;;;4899455;29;20164;-68
2022/06/13 04:08:12;;;;;;;0.10;0.10;;;14.90;99.90;;;;;;4898362;29;20056;-69
2022/06/13 04:10:51;;;;;;;0.20;0.20;;;14.90;99.90;;;;;;4897261;29;20386;-69
2022/06/13 04:13:47;;;;;;;1.88;1.70;;;14.90;99.90;;;;;;4896870;29;20053;-67
2022/06/13 04:16:27;;;;;;;0.00;0.00;;;14.70;99.90;;;;;;4913321;29;20044;-66
2022/06/13 04:19:25;;;;;;;0.00;0.00;;;14.40;99.90;;;;;;4917452;29;20036;-66
2022/06/13 04:21:58;;;;;;;0.00;0.00;;;14.10;99.90;;;;;;4912271;29;20046;-67
2022/06/13 04:24:55;;;;;;;0.00;0.00;;;14.10;99.90;;;;;;4916081;29;20067;-66
2022/06/13 04:27:36;;;;;;;0.00;0.00;;;14.00;99.90;;;;;;4909319;29;20056;-66
2022/06/13 04:30:15;;;;;;;0.00;0.00;;;14.00;99.90;;;;;;4914711;29;20075;-66
2022/06/13 04:32:53;;;;;;;0.10;0.10;;;13.80;99.90;;;;;;4914745;29;20052;-67
2022/06/13 04:35:20;;;;;;;0.10;0.10;;;13.80;99.90;;;;;;4902494;29;20056;-67
2022/06/13 04:37:47;;;;;;;0.00;0.00;;;13.80;99.90;;;;;;4897049;29;20041;-67
2022/06/13 04:40:19;;;;;;;0.00;0.00;;;13.80;99.90;;;;;;4907460;29;20143;-67
2022/06/13 04:42:46;;;;;;;0.00;0.00;;;13.80;99.90;;;;;;4916345;29;20450;-67
2022/06/13 04:45:43;;;;;;;0.10;0.10;;;13.60;99.90;;;;;;4914204;29;20496;-67
2022/06/13 04:48:09;;;;;;;0.10;0.10;;;13.80;99.90;;;;;;4907006;29;20052;-67
2022/06/13 04:50:39;;;;;;;0.08;0.08;;;13.80;99.90;;;;;;4897183;29;20087;-67
2022/06/13 04:53:10;;;;;;;0.30;0.30;;;13.80;99.90;;;;;;4896474;29;20073;-67
2022/06/13 04:55:45;;;;;;;0.10;0.10;;;13.80;99.90;;;;;;4898743;29;20492;-67
2022/06/13 04:58:31;;;;;;;0.08;0.08;;;13.80;99.90;;;;;;4915436;29;20036;-67
2022/06/13 05:01:05;;;;;;;0.35;0.35;;;13.80;99.90;;;;;;4916264;29;20182;-67
2022/06/13 05:03:36;;;;;;;1.13;0.90;;;13.90;99.90;;;;;;4911036;29;20056;-67
2022/06/13 05:06:06;;;;;;;0.00;0.00;;;13.90;99.90;;;;;;4915146;29;20040;-67
2022/06/13 05:08:36;;;;;;;0.17;0.17;;;13.90;99.90;;;;;;4915705;29;20411;-67
2022/06/13 05:11:11;;;;;;;0.65;0.38;;;13.90;99.90;;;;;;4914084;29;20044;-67
2022/06/13 05:13:37;;;;;;;0.10;0.10;;;14.00;99.90;;;;;;4914921;29;20052;-67
2022/06/13 05:16:40;;;;;;;0.10;0.10;;;14.10;99.90;;;;;;4914498;29;20475;-67
2022/06/13 05:19:24;;;;;;;0.28;0.28;;;14.20;99.90;;;;;;4887353;29;20497;-67
2022/06/13 05:22:17;;;;;;;0.30;0.20;;;14.30;99.90;;;;;;4896859;29;20076;-67
2022/06/13 05:24:58;;;;;;;0.55;0.55;;;14.40;99.90;;;;;;4896857;29;20052;-67
2022/06/13 05:27:23;;;;;;;3.40;0.30;;;14.40;99.90;;;;;;4893457;29;20052;-68
2022/06/13 05:29:49;;;;;;;0.28;0.28;;;14.50;99.90;;;;;;4896892;29;20052;-67
2022/06/13 05:32:17;;;;;;;1.10;0.80;;;14.60;99.90;;;;;;4897368;29;20060;-67
2022/06/13 05:34:44;;;;;;;0.10;0.10;;;14.60;99.90;;;;;;4895438;29;20067;-67
2022/06/13 05:37:13;;;;;;;0.20;0.20;;;14.70;99.90;;;;;;4896178;29;20060;-67
2022/06/13 05:39:39;;;;;;;0.10;0.10;;;14.70;99.90;;;;;;4904943;29;20091;-68
2022/06/13 05:42:04;;;;;;;0.05;0.05;;;14.70;99.90;;;;;;4912391;29;20047;-68
2022/06/13 05:44:30;;;;;;;0.20;0.20;;;14.70;99.90;;;;;;4913570;29;20091;-68
2022/06/13 05:46:56;;;;;;;0.10;0.10;;;14.70;99.90;;;;;;4896441;29;20056;-68
2022/06/13 05:49:21;;;;;;;0.10;0.10;;;14.70;99.90;;;;;;4893944;29;20055;-67
2022/06/13 05:51:47;;;;;;;0.00;0.00;;;14.70;99.90;;;;;;4896796;29;20040;-67
2022/06/13 05:54:13;;;;;;;0.10;0.10;;;14.60;99.90;;;;;;4895896;29;20044;-68
2022/06/13 05:56:40;;;;;;;0.00;0.00;;;14.60;99.90;;;;;;4895188;29;20048;-68
2022/06/13 05:59:06;;;;;;;0.10;0.10;;;14.60;99.90;;;;;;4905417;29;20058;-68
2022/06/13 06:01:35;;;;;;;0.10;0.10;;;14.70;99.90;;;;;;4913943;29;20048;-68
2022/06/13 06:04:02;;;;;;;0.10;0.10;;;14.70;99.90;;;;;;4914428;29;20040;-68
2022/06/13 06:06:29;;;;;;;0.00;0.00;;;14.70;99.90;;;;;;4909930;29;20063;-68
2022/06/13 06:08:55;;;;;;;0.10;0.10;;;14.70;99.90;;;;;;4912657;29;20059;-68
2022/06/13 06:11:26;;;;;;;0.00;0.00;;;14.80;99.90;;;;;;4914357;29;20129;-68
2022/06/13 06:13:51;;;;;;;0.10;0.10;;;14.80;99.90;;;;;;4900405;29;20488;-68
2022/06/13 06:16:20;;;;;;;0.00;0.00;;;14.80;99.90;;;;;;4894290;29;20056;-68
2022/06/13 06:18:45;;;;;;;0.80;0.35;;;14.80;99.90;;;;;;4912948;29;20036;-68
2022/06/13 06:21:11;;;;;;;0.20;0.20;;;14.80;99.90;;;;;;4912705;29;20123;-68
2022/06/13 06:23:37;;;;;;;0.10;0.10;;;14.90;99.90;;;;;;4913626;29;20052;-68
2022/06/13 06:26:04;;;;;;;0.10;0.10;;;15.00;99.90;;;;;;4905802;29;20084;-68
2022/06/13 06:28:32;;;;;;;0.00;0.00;;;15.00;99.90;;;;;;4895582;29;20404;-67
2022/06/13 06:30:59;;;;;;;0.13;0.13;;;15.10;99.90;;;;;;4894789;29;20095;-68
2022/06/13 06:33:26;;;;;;;0.10;0.10;;;15.20;99.90;;;;;;4894360;29;20049;-68
2022/06/13 06:35:52;;;;;;;0.10;0.10;;;15.20;99.90;;;;;;4895402;29;20044;-68
2022/06/13 06:38:19;;;;;;;0.55;0.20;;;15.20;99.90;;;;;;4894795;29;20053;-68
2022/06/13 06:40:45;;;;;;;0.10;0.10;;;15.20;99.90;;;;;;4897766;29;20053;-68
2022/06/13 06:43:11;;;;;;;0.10;0.10;;;15.30;99.90;;;;;;4894195;29;20060;-68
2022/06/13 06:45:37;;;;;;;0.10;0.10;;;15.30;99.90;;;;;;4893207;29;20087;-68
2022/06/13 06:48:03;;;;;;;0.10;0.10;;;15.40;99.90;;;;;;4893751;29;20057;-68
2022/06/13 06:50:34;;;;;;;0.00;0.00;;;15.30;99.90;;;;;;4893781;29;20108;-67
2022/06/13 06:53:00;;;;;;;0.60;0.60;;;15.40;99.90;;;;;;4894246;29;20053;-68
2022/06/13 07:01:01;;;;;;;1.50;1.40;;;15.40;99.90;;;;;;4898389;29;20091;-68
2022/06/13 07:03:27;;;;;;;0.00;0.00;;;15.70;99.90;;;;;;4895116;29;20048;-68
2022/06/13 07:05:53;;;;;;;0.40;0.40;;;15.70;99.90;;;;;;4893635;29;20059;-68
2022/06/13 07:08:19;;;;;;;0.00;0.00;;;15.80;99.90;;;;;;4894840;29;20459;-67
2022/06/13 07:10:47;;;;;;;0.10;0.10;;;15.70;99.90;;;;;;4895056;29;20051;-68
2022/06/13 07:13:14;;;;;;;0.10;0.10;;;15.70;99.90;;;;;;4894253;29;20048;-68
2022/06/13 07:15:40;;;;;;;0.10;0.10;;;15.80;99.90;;;;;;4912164;29;20571;-68
2022/06/13 07:18:06;;;;;;;0.00;0.00;;;15.70;99.90;;;;;;4898995;29;20049;-68
2022/06/13 07:20:32;;;;;;;0.20;0.20;;;15.70;99.90;;;;;;4894025;29;20382;-68
2022/06/13 07:22:57;;;;;;;4.85;1.55;;;15.70;99.90;;;;;;4893674;29;20135;-68
2022/06/13 07:25:27;;;;;;;0.00;0.00;;;15.70;99.90;;;;;;4896348;29;20064;-68
2022/06/13 07:27:53;;;;;;;0.00;0.00;;;15.80;99.90;;;;;;4907585;29;20060;-69
2022/06/13 07:30:21;;;;;;;4.68;1.65;;;15.90;99.90;;;;;;4916498;29;20048;-67
2022/06/13 07:32:48;;;;;;;0.20;0.20;;;15.90;99.90;;;;;;4917832;29;20726;-68
2022/06/13 07:35:17;;;;;;;0.10;0.10;;;15.90;99.90;;;;;;4916127;29;20897;-68
2022/06/13 07:40:28;;;;;;;0.00;0.00;;;16.00;99.90;;;;;;4913217;29;20048;-68
2022/06/13 07:42:57;;;;;;;0.32;0.32;;;16.00;99.90;;;;;;4902448;29;20508;-68
2022/06/13 07:45:26;;;;;;;0.10;0.10;;;15.90;99.90;;;;;;4899093;29;20044;-68
2022/06/13 07:47:53;;;;;;;0.00;0.00;;;15.80;99.90;;;;;;4898275;29;20040;-68
2022/06/13 07:50:23;;;;;;;0.43;0.20;;;15.80;99.90;;;;;;4898044;29;20048;-68
2022/06/13 07:52:51;;;;;;;0.10;0.10;;;15.80;99.90;;;;;;4898229;29;20092;-68
2022/06/13 07:55:18;;;;;;;0.10;0.10;;;16.00;99.90;;;;;;4897835;29;20091;-68
2022/06/13 07:57:45;;;;;;;0.05;0.05;;;16.00;99.90;;;;;;4900716;29;20091;-68
2022/06/13 08:00:21;;;;;;;0.10;0.10;;;15.90;99.90;;;;;;4917139;29;20063;-68
2022/06/13 08:02:47;;;;;;;0.10;0.10;;;16.00;99.90;;;;;;4917024;29;20388;-68
2022/06/13 08:05:12;;;;;;;7.47;1.13;;;16.10;99.90;;;;;;4906463;29;20053;-68
2022/06/13 08:07:39;;;;;;;0.00;0.00;;;16.10;99.90;;;;;;4897034;29;20064;-69
2022/06/13 08:10:05;;;;;;;0.13;0.13;;;16.10;99.90;;;;;;4897606;29;20078;-68
2022/06/13 08:12:31;;;;;;;0.00;0.00;;;15.90;99.90;;;;;;4898308;29;20489;-69
2022/06/13 08:14:57;;;;;;;0.25;0.25;;;15.90;99.90;;;;;;4905360;29;20512;-69
2022/06/13 08:17:22;;;;;;;0.00;0.00;;;15.70;99.90;;;;;;4897690;29;20046;-69
2022/06/13 08:19:49;;;;;;;5.05;1.05;;;15.90;99.90;;;;;;4898451;29;20049;-69
2022/06/13 08:22:15;;;;;;;0.00;0.00;;;16.10;99.90;;;;;;4895667;29;20073;-69
2022/06/13 08:24:41;;;;;;;0.10;0.10;;;16.20;99.90;;;;;;4896253;29;20096;-69
2022/06/13 08:27:08;;;;;;;0.32;0.32;;;16.20;99.90;;;;;;4897659;29;20049;-69
2022/06/13 08:29:33;;;;;;;0.38;0.38;;;16.20;99.90;;;;;;4898868;29;20040;-69
2022/06/13 08:32:00;;;;;;;0.10;0.10;;;16.30;99.90;;;;;;4914657;29;20120;-68
2022/06/13 08:34:26;;;;;;;0.10;0.10;;;16.30;99.90;;;;;;4916560;29;20396;-69
2022/06/13 08:36:53;;;;;;;0.43;0.43;;;16.30;99.90;;;;;;4913123;29;20047;-69
2022/06/13 08:39:19;;;;;;;0.10;0.10;;;16.40;99.90;;;;;;4908994;29;20060;-69
2022/06/13 08:41:56;;;;;;;0.10;0.10;;;16.40;99.90;;;;;;4897883;29;20412;-69
2022/06/13 08:44:47;;;;;;;0.00;0.00;;;16.60;99.90;;;;;;4897681;29;20158;-69
2022/06/13 08:47:12;;;;;;;0.00;0.00;;;16.70;99.90;;;;;;4897220;29;20053;-69
2022/06/13 08:50:18;;;;;;;0.00;0.00;;;16.60;99.90;;;;;;4906568;29;20128;-69
2022/06/13 08:52:54;;;;;;;0.00;0.00;;;16.60;99.90;;;;;;4916292;29;20452;-69
2022/06/13 08:55:30;;;;;;;0.90;0.65;;;16.60;99.90;;;;;;4914240;29;20124;-69
2022/06/13 08:58:20;;;;;;;0.00;0.00;;;16.70;99.90;;;;;;4900486;29;20061;-69
2022/06/13 09:00:53;;;;;;;0.00;0.00;;;16.70;99.90;;;;;;4897569;29;20185;-69
2022/06/13 09:03:49;;;;;;;0.10;0.10;;;16.90;99.90;;;;;;4895536;29;20052;-69
2022/06/13 09:06:29;;;;;;;0.32;0.28;;;17.10;99.90;;;;;;4913011;29;20475;-69
2022/06/13 09:09:09;;;;;;;0.25;0.25;;;17.40;99.90;;;;;;4915999;29;20131;-69
2022/06/13 09:11:45;;;;;;;0.20;0.20;;;17.60;99.90;;;;;;4915229;29;20044;-68
2022/06/13 09:14:23;;;;;;;0.00;0.00;;;17.40;99.90;;;;;;4906194;29;20057;-68
2022/06/13 09:17:17;;;;;;;0.00;0.00;;;17.00;99.90;;;;;;4897135;29;20132;-69
2022/06/13 09:19:55;;;;;;;0.10;0.10;;;17.00;99.90;;;;;;4895662;29;20056;-68
2022/06/13 09:22:42;;;;;;;0.35;0.30;;;17.20;99.90;;;;;;4895438;29;20131;-69
2022/06/13 09:25:07;;;;;;;0.10;0.10;;;17.30;99.90;;;;;;4914989;29;20480;-69
2022/06/13 09:27:41;;;;;;;0.00;0.00;;;17.50;99.90;;;;;;4914621;29;20052;-69
2022/06/13 09:30:16;;;;;;;4.55;2.00;;;17.70;99.90;;;;;;4913403;29;20052;-69
2022/06/13 09:32:50;;;;;;;0.10;0.10;;;17.50;99.90;;;;;;4914152;29;20094;-69
2022/06/13 09:35:31;;;;;;;0.10;0.10;;;17.30;99.90;;;;;;4913973;29;20378;-69
2022/06/13 09:38:01;;;;;;;0.00;0.00;;;17.10;99.90;;;;;;4911227;29;20050;-69
2022/06/13 09:40:43;;;;;;;0.38;0.20;;;17.00;99.90;;;;;;4902275;29;20498;-69
2022/06/13 09:43:18;;;;;;;0.20;0.20;;;17.20;99.90;;;;;;4893704;29;20064;-68
2022/06/13 09:46:03;;;;;;;0.10;0.10;;;17.70;99.90;;;;;;4896470;29;20172;-68
2022/06/13 09:49:03;;;;;;;0.00;0.00;;;18.20;99.90;;;;;;4894735;29;20056;-67
2022/06/13 09:51:46;;;;;;;0.20;0.20;;;17.80;99.90;;;;;;4895626;29;20053;-67
2022/06/13 09:54:32;;;;;;;0.10;0.10;;;17.10;99.90;;;;;;4913542;29;20050;-67
2022/06/13 09:57:24;;;;;;;13.27;1.65;;;16.70;99.90;;;;;;4911905;29;20054;-67
2022/06/13 10:00:14;;;;;;;0.08;0.08;;;16.50;99.90;;;;;;4914893;29;20067;-67
2022/06/13 10:03:01;;;;;;;0.10;0.10;;;16.30;99.90;;;;;;4909507;29;20056;-67
2022/06/13 10:05:35;;;;;;;0.17;0.17;;;16.30;99.90;;;;;;4911904;29;20062;-68
2022/06/13 10:08:28;;;;;;;1.77;0.38;;;16.40;99.90;;;;;;4913914;29;20060;-68
2022/06/13 10:11:07;;;;;;;0.10;0.10;;;16.70;99.90;;;;;;4911097;29;20377;-68
2022/06/13 10:13:50;;;;;;;0.10;0.10;;;16.60;99.90;;;;;;4905210;29;20119;-68
2022/06/13 10:16:43;;;;;;;1.08;0.98;;;16.90;99.90;;;;;;4897935;29;20059;-67
2022/06/13 10:19:18;;;;;;;0.10;0.10;;;17.00;99.90;;;;;;4908867;29;20039;-67
2022/06/13 10:21:46;;;;;;;0.00;0.00;;;16.70;99.90;;;;;;4914324;29;20292;-68
2022/06/13 10:24:29;;;;;;;0.10;0.10;;;16.70;99.90;;;;;;4911254;29;20036;-67
2022/06/13 10:27:09;;;;;;;0.05;0.05;;;16.60;99.90;;;;;;4894655;29;20053;-67
2022/06/13 10:29:46;;;;;;;0.20;0.20;;;16.70;99.90;;;;;;4894001;29;20053;-68
2022/06/13 10:32:32;;;;;;;0.00;0.00;;;16.90;99.90;;;;;;4894852;29;20120;-68
2022/06/13 10:35:22;;;;;;;0.10;0.10;;;16.90;99.90;;;;;;4895009;29;20124;-68
2022/06/13 10:38:08;;;;;;;0.00;0.00;;;16.80;99.90;;;;;;4912432;29;20048;-68
2022/06/13 10:40:35;;;;;;;0.05;0.05;;;16.70;99.90;;;;;;4911915;29;20048;-68
2022/06/13 10:43:02;;;;;;;0.10;0.10;;;17.00;99.90;;;;;;4911687;29;20603;-68
2022/06/13 10:45:28;;;;;;;1.98;0.35;;;17.50;99.90;;;;;;4908959;29;20095;-68
2022/06/13 10:48:03;;;;;;;0.00;0.00;;;18.00;99.90;;;;;;4895387;29;20488;-68
2022/06/13 10:50:40;;;;;;;0.00;0.00;;;18.40;99.90;;;;;;4894252;29;20377;-68
2022/06/13 10:53:22;;;;;;;0.08;0.08;;;18.50;99.90;;;;;;4896301;29;20060;-68
2022/06/13 10:55:51;;;;;;;0.00;0.00;;;18.10;99.90;;;;;;4914018;29;20056;-68
2022/06/13 10:58:22;;;;;;;0.10;0.10;;;18.20;99.90;;;;;;4911717;29;20135;-68
2022/06/13 11:01:08;;;;;;;0.00;0.00;;;18.30;99.90;;;;;;4909324;29;20528;-68
2022/06/13 11:03:34;;;;;;;0.63;0.50;;;18.00;99.90;;;;;;4913707;29;20514;-68
2022/06/13 11:06:04;;;;;;;0.00;0.00;;;17.70;99.90;;;;;;4907600;29;20044;-68
2022/06/13 11:08:31;;;;;;;0.00;0.00;;;17.50;99.90;;;;;;4909954;29;20496;-68
2022/06/13 11:10:59;;;;;;;0.00;0.00;;;17.40;99.90;;;;;;4913705;29;20087;-68
2022/06/13 11:13:28;;;;;;;2.60;1.40;;;17.20;99.90;;;;;;4906365;29;20041;-69
2022/06/13 11:24:47;;;;;;;0.90;0.32;;;18.70;99.90;;;;;;4912494;29;20143;-68
2022/06/13 11:27:42;;;;;;;0.10;0.10;;;18.90;99.90;;;;;;4895718;29;20485;-68
2022/06/13 11:30:19;;;;;;;0.10;0.10;;;18.80;99.90;;;;;;4894529;29;20524;-68
2022/06/13 11:33:05;;;;;;;0.10;0.10;;;18.40;99.90;;;;;;4893012;29;20067;-68
2022/06/13 11:35:38;;;;;;;0.90;0.73;;;18.90;99.90;;;;;;4898835;29;20052;-68
2022/06/13 11:38:19;;;;;;;0.80;0.80;;;19.20;99.90;;;;;;4913451;29;20507;-69
2022/06/13 11:41:07;;;;;;;0.00;0.00;;;18.80;99.90;;;;;;4911466;29;20050;-69
2022/06/13 11:43:39;;;;;;;0.00;0.00;;;18.70;99.90;;;;;;4899096;29;20064;-69
2022/06/13 11:46:10;;;;;;;0.10;0.10;;;18.30;99.90;;;;;;4894385;29;20049;-69
2022/06/13 11:48:36;;;;;;;0.10;0.10;;;18.30;99.90;;;;;;4894838;29;20060;-68
2022/06/13 11:51:05;;;;;;;0.08;0.08;;;18.30;99.90;;;;;;4894448;29;20048;-69
2022/06/13 11:53:37;;;;;;;0.63;0.63;;;18.20;99.90;;;;;;4891703;29;20596;-69
2022/06/13 11:56:28;;;;;;;0.57;0.30;;;18.10;99.90;;;;;;4894268;29;20108;-69
2022/06/13 11:58:56;;;;;;;0.00;0.00;;;18.60;99.90;;;;;;4894886;29;20057;-69
2022/06/13 12:01:28;;;;;;;0.00;0.00;;;19.00;99.90;;;;;;4900617;29;20062;-69
2022/06/13 12:04:04;;;;;;;0.10;0.10;;;19.50;99.90;;;;;;4914120;29;20044;-70
2022/06/13 12:06:58;;;;;;;0.00;0.00;;;20.00;99.90;;;;;;4913853;29;20407;-69
2022/06/13 12:09:34;;;;;;;0.25;0.15;;;20.60;99.90;;;;;;4924099;29;20139;-70
2022/06/13 12:12:07;;;;;;;0.00;0.00;;;20.50;99.90;;;;;;4913897;29;20051;-69
2022/06/13 12:14:41;;;;;;;0.00;0.00;;;20.70;99.90;;;;;;4916542;29;20044;-70
2022/06/13 12:17:26;;;;;;;0.10;0.10;;;20.50;99.90;;;;;;4915589;29;20052;-70
2022/06/13 12:20:03;;;;;;;0.30;0.30;;;20.10;99.90;;;;;;4912804;29;20176;-69
2022/06/13 12:22:41;;;;;;;0.00;0.00;;;19.80;99.90;;;;;;4915852;29;20044;-70
2022/06/13 12:25:21;;;;;;;0.00;0.00;;;20.60;99.90;;;;;;4898834;29;20192;-69
2022/06/13 12:28:05;;;;;;;0.10;0.10;;;21.00;99.90;;;;;;4897989;29;20048;-69
2022/06/13 12:30:35;;;;;;;0.32;0.32;;;21.40;99.90;;;;;;4897268;29;20056;-69
2022/06/13 12:33:09;;;;;;;0.08;0.08;;;20.90;99.90;;;;;;4896464;29;20144;-69
2022/06/13 12:36:06;;;;;;;0.50;0.50;;;20.50;99.90;;;;;;4898627;29;20048;-69
2022/06/13 12:39:00;;;;;;;0.10;0.10;;;20.10;99.90;;;;;;4897603;29;20523;-69
2022/06/13 12:41:49;;;;;;;0.00;0.00;;;19.70;99.90;;;;;;4905065;29;20131;-69
2022/06/13 12:44:35;;;;;;;0.08;0.08;;;19.40;99.90;;;;;;4895484;29;20088;-68
2022/06/13 12:47:20;;;;;;;0.10;0.10;;;19.10;99.90;;;;;;4895922;29;20056;-69
2022/06/13 12:50:33;;;;;;;0.10;0.10;;;19.90;99.90;;;;;;4896644;29;20053;-69
2022/06/13 12:53:36;;;;;;;0.00;0.00;;;19.90;99.90;;;;;;4895081;29;20489;-69
2022/06/13 12:56:30;;;;;;;0.10;0.10;;;20.30;99.90;;;;;;4905199;29;20075;-69
2022/06/13 12:59:14;;;;;;;0.00;0.00;;;20.20;99.90;;;;;;4914648;29;20078;-69
2022/06/13 13:02:16;;;;;;;0.50;0.40;;;20.10;99.90;;;;;;4915884;29;20060;-69
2022/06/13 13:05:04;;;;;;;0.00;0.00;;;20.40;99.90;;;;;;4906776;29;20049;-70
2022/06/13 13:07:47;;;;;;;0.10;0.10;;;20.10;99.90;;;;;;4896670;29;20496;-67
2022/06/13 13:10:33;;;;;;;0.20;0.20;;;19.90;99.90;;;;;;4912421;29;20051;-67
2022/06/13 13:13:13;;;;;;;0.00;0.00;;;19.60;99.90;;;;;;4914277;29;20530;-67
2022/06/13 13:15:48;;;;;;;6.63;0.55;;;20.10;99.90;;;;;;4911321;29;20054;-67
2022/06/13 13:18:20;;;;;;;0.00;0.00;;;20.70;99.90;;;;;;4914732;29;20058;-66
2022/06/13 13:20:45;;;;;;;0.10;0.10;;;20.50;99.90;;;;;;4915648;29;20084;-67
2022/06/13 13:23:20;;;;;;;0.00;0.00;;;20.80;99.90;;;;;;4912311;29;20222;-67
2022/06/13 13:26:19;;;;;;;0.00;0.00;;;21.60;99.90;;;;;;4913753;29;20059;-67
2022/06/13 13:29:12;;;;;;;0.20;0.05;;;21.80;99.90;;;;;;4915952;29;20095;-67
2022/06/13 13:31:44;;;;;;;0.20;0.20;;;21.80;99.90;;;;;;4899707;29;20124;-67
2022/06/13 13:34:28;;;;;;;0.00;0.00;;;21.60;99.90;;;;;;4897076;29;20052;-67
2022/06/13 13:37:25;;;;;;;0.25;0.25;;;21.10;99.90;;;;;;4899354;29;20052;-67
2022/06/13 13:40:33;;;;;;;1.10;1.00;;;21.40;99.90;;;;;;4914759;29;20500;-67
2022/06/13 13:43:18;;;;;;;0.10;0.10;;;20.90;99.90;;;;;;4915245;29;20523;-67
2022/06/13 13:45:55;;;;;;;1.55;0.35;;;21.10;99.90;;;;;;4910608;29;20404;-67
2022/06/13 13:48:36;;;;;;;0.32;0.32;;;21.40;99.90;;;;;;4915039;29;20070;-67
2022/06/13 13:51:11;;;;;;;0.75;0.75;;;21.80;99.90;;;;;;4900575;29;20057;-67